Time;durP1;ratioP1;P1;durP2;ratioP2;P2;SDS_P1;SDS_P2;PMS_P1;PMS_P2;Temp;Humidity;BMP_temperature;BMP_pressure;BME280_temperature;BME280_humidity;BME280_pressure;Samples;Min_cycle;Max_cycle;Signal;HPM_P1;HPM_P2
2024/03/10 00:00:47;;;;;;;88.00;39.90;;;;;;;5.43;100.00;99942.52;213699;1289;139764;-84
2024/03/10 00:05:47;;;;;;;103.90;38.70;;;;;;;5.49;100.00;99940.64;214301;1291;140266;-84
2024/03/10 00:10:48;;;;;;;91.60;35.20;;;;;;;5.56;100.00;99938.61;213808;1292;141855;-83
2024/03/10 00:15:48;;;;;;;75.00;32.90;;;;;;;5.61;100.00;99933.51;215258;1288;138442;-83
2024/03/10 00:20:49;;;;;;;65.70;28.80;;;;;;;5.68;100.00;99932.73;213364;1294;140053;-84
2024/03/10 00:25:50;;;;;;;61.00;28.80;;;;;;;5.75;100.00;99932.83;213813;1289;107628;-84
2024/03/10 00:30:50;;;;;;;65.30;30.00;;;;;;;5.85;100.00;99932.76;213617;1295;139553;-84
2024/03/10 00:35:50;;;;;;;56.90;29.10;;;;;;;5.96;100.00;99928.84;214325;1294;139412;-84
2024/03/10 00:40:51;;;;;;;57.90;26.90;;;;;;;6.02;100.00;99923.91;213633;1292;139871;-84
2024/03/10 00:45:52;;;;;;;67.40;34.70;;;;;;;6.10;100.00;99915.02;214180;1288;139408;-85
2024/03/10 00:50:52;;;;;;;82.30;34.50;;;;;;;6.21;100.00;99910.33;213974;1289;140243;-84
2024/03/10 00:55:52;;;;;;;71.20;32.60;;;;;;;6.30;100.00;99911.36;214482;1293;96606;-82
2024/03/10 01:00:53;;;;;;;64.70;29.80;;;;;;;6.37;100.00;99905.95;213848;1294;139535;-81
2024/03/10 01:05:53;;;;;;;63.40;28.70;;;;;;;6.45;100.00;99905.18;213702;1289;138684;-82
2024/03/10 01:10:54;;;;;;;58.80;28.10;;;;;;;6.51;100.00;99904.88;213176;1294;139732;-83
2024/03/10 01:15:55;;;;;;;61.60;29.00;;;;;;;6.56;100.00;99905.14;214470;1289;138524;-85
2024/03/10 01:20:55;;;;;;;56.20;27.60;;;;;;;6.64;100.00;99903.27;214088;1292;138720;-83
2024/03/10 01:25:56;;;;;;;55.30;27.40;;;;;;;6.69;100.00;99894.08;213721;1290;97529;-82
2024/03/10 01:30:56;;;;;;;50.30;27.10;;;;;;;6.71;100.00;99888.80;213138;1295;140184;-84
2024/03/10 01:35:57;;;;;;;58.50;30.30;;;;;;;6.74;100.00;99881.42;213712;1293;138539;-83
2024/03/10 01:40:58;;;;;;;57.50;30.20;;;;;;;6.78;100.00;99880.16;213096;1295;139946;-84
2024/03/10 01:46:06;;;;;;;55.20;28.30;;;;;;;6.81;100.00;99885.05;213616;1295;139300;-83
2024/03/10 01:51:07;;;;;;;54.60;29.20;;;;;;;6.84;100.00;99887.60;213128;1294;140152;-83
2024/03/10 01:56:11;;;;;;;55.20;27.00;;;;;;;6.85;100.00;99883.80;213798;1292;96641;-83
2024/03/10 02:01:15;;;;;;;57.30;28.40;;;;;;;6.88;100.00;99885.88;213679;1292;139536;-83
2024/03/10 02:06:16;;;;;;;66.50;31.40;;;;;;;6.91;100.00;99877.11;213673;1292;138839;-83
2024/03/10 02:11:18;;;;;;;61.50;29.70;;;;;;;6.94;100.00;99868.70;213486;1292;138537;-83
2024/03/10 02:16:18;;;;;;;62.20;30.90;;;;;;;6.95;100.00;99870.30;213361;1289;139563;-83
2024/03/10 02:21:21;;;;;;;61.30;29.20;;;;;;;6.98;100.00;99864.48;215463;1292;139120;-84
2024/03/10 02:26:28;;;;;;;57.70;29.80;;;;;;;7.01;100.00;99863.29;213350;1290;140077;-84
2024/03/10 02:47:26;;;;;;;125.00;53.50;;;;;;;6.79;100.00;99844.55;213170;1288;140107;-83
2024/03/10 02:52:26;;;;;;;84.90;44.60;;;;;;;6.72;100.00;99844.36;213628;1288;138895;-83
2024/03/10 02:57:30;;;;;;;211.60;64.10;;;;;;;6.68;100.00;99843.80;213161;1289;140946;-84
2024/03/10 03:02:33;;;;;;;151.30;51.00;;;;;;;6.65;100.00;99842.74;213806;1295;105909;-82
2024/03/10 03:07:33;;;;;;;81.30;35.40;;;;;;;6.64;100.00;99839.61;213184;1288;140150;-84
2024/03/10 03:12:33;;;;;;;106.90;41.70;;;;;;;6.65;100.00;99836.27;213683;1288;138591;-84
2024/03/10 03:17:34;;;;;;;83.20;33.80;;;;;;;6.67;100.00;99841.45;213286;1288;140202;-84
2024/03/10 03:22:34;;;;;;;91.00;36.10;;;;;;;6.69;100.00;99836.58;215405;1289;138982;-83
2024/03/10 03:27:35;;;;;;;79.20;34.80;;;;;;;6.72;100.00;99846.94;213003;1288;139823;-83
2024/03/10 03:32:36;;;;;;;91.80;35.70;;;;;;;6.74;100.00;99846.50;213611;1292;104228;-85
2024/03/10 03:37:37;;;;;;;82.50;31.70;;;;;;;6.76;100.00;99844.02;213013;1288;139030;-82
2024/03/10 03:42:37;;;;;;;83.30;35.50;;;;;;;6.78;100.00;99840.55;213500;1288;138414;-83
2024/03/10 03:47:38;;;;;;;85.30;34.20;;;;;;;6.78;100.00;99838.77;212863;1289;140117;-83
2024/03/10 03:52:38;;;;;;;86.10;34.50;;;;;;;6.79;100.00;99839.85;213581;1290;138557;-83
2024/03/10 03:57:38;;;;;;;88.50;37.80;;;;;;;6.79;100.00;99831.89;213073;1289;139830;-83
2024/03/10 04:02:39;;;;;;;66.40;31.10;;;;;;;6.79;100.00;99828.54;213645;1288;98231;-83
2024/03/10 04:07:41;;;;;;;62.10;29.20;;;;;;;6.78;100.00;99824.23;212869;1294;139622;-86
2024/03/10 04:12:41;;;;;;;73.60;32.80;;;;;;;6.77;100.00;99820.52;213533;1289;138653;-83
2024/03/10 04:17:46;;;;;;;55.20;25.80;;;;;;;6.78;100.00;99813.52;213023;1292;140191;-84
2024/03/10 04:22:48;;;;;;;61.50;30.00;;;;;;;6.79;100.00;99819.54;215515;1292;137502;-83
2024/03/10 04:27:48;;;;;;;71.20;33.40;;;;;;;6.79;100.00;99819.39;213089;1288;139708;-82
2024/03/10 04:32:49;;;;;;;115.90;39.70;;;;;;;6.77;100.00;99820.06;213508;1293;139635;-82
2024/03/10 04:37:50;;;;;;;62.20;29.30;;;;;;;6.76;100.00;99815.98;213571;1289;140263;-82
2024/03/10 04:42:50;;;;;;;64.00;29.40;;;;;;;6.74;100.00;99812.51;214266;1292;138935;-82
2024/03/10 04:47:52;;;;;;;58.90;29.60;;;;;;;6.74;100.00;99808.29;213666;1292;141279;-84
2024/03/10 04:52:53;;;;;;;61.40;28.50;;;;;;;6.72;100.00;99803.02;214103;1289;138825;-82
2024/03/10 04:57:55;;;;;;;54.30;26.00;;;;;;;6.70;100.00;99809.08;213728;1291;140303;-83
2024/03/10 05:02:57;;;;;;;53.60;27.80;;;;;;;6.67;100.00;99810.83;216286;1288;138799;-82
2024/03/10 05:07:58;;;;;;;54.80;25.80;;;;;;;6.65;100.00;99812.52;213781;1292;140154;-82
2024/03/10 05:12:59;;;;;;;50.30;25.80;;;;;;;6.63;100.00;99809.20;213519;1291;139139;-83
2024/03/10 05:17:59;;;;;;;54.00;26.10;;;;;;;6.61;100.00;99816.98;212879;1288;140203;-83
2024/03/10 05:23:00;;;;;;;53.60;27.30;;;;;;;6.60;100.00;99816.48;215687;1292;138660;-83
2024/03/10 05:28:00;;;;;;;55.50;27.20;;;;;;;6.57;100.00;99815.52;212922;1288;140331;-83
2024/03/10 05:33:01;;;;;;;49.50;25.60;;;;;;;6.56;100.00;99817.76;213388;1294;138489;-83
2024/03/10 05:38:01;;;;;;;56.30;27.40;;;;;;;6.54;100.00;99813.90;213109;1292;140202;-84
2024/03/10 05:43:02;;;;;;;51.60;27.70;;;;;;;6.54;100.00;99812.09;213474;1289;138584;-83
2024/03/10 05:48:03;;;;;;;56.00;27.70;;;;;;;6.52;100.00;99814.17;212853;1290;140247;-83
2024/03/10 05:53:04;;;;;;;58.70;29.20;;;;;;;6.49;100.00;99809.67;213555;1289;138611;-83
2024/03/10 05:58:04;;;;;;;104.00;40.40;;;;;;;6.48;100.00;99820.59;213052;1291;140488;-83
2024/03/10 06:03:05;;;;;;;64.40;29.80;;;;;;;6.46;100.00;99815.55;213632;1288;138801;-85
2024/03/10 06:08:07;;;;;;;64.30;32.10;;;;;;;6.46;100.00;99815.55;213265;1289;141502;-82
2024/03/10 06:13:08;;;;;;;60.10;26.70;;;;;;;6.45;100.00;99821.22;213636;1288;138666;-83
2024/03/10 06:18:21;;;;;;;62.00;29.50;;;;;;;6.42;100.00;99823.61;213121;1291;140258;-83
2024/03/10 06:28:41;;;;;;;54.30;27.70;;;;;;;6.42;100.00;99832.75;213962;1289;140176;-83
2024/03/10 06:33:42;;;;;;;55.40;28.60;;;;;;;6.41;100.00;99835.06;213666;1289;138457;-84
2024/03/10 06:38:45;;;;;;;56.50;29.00;;;;;;;6.41;100.00;99837.08;213136;1288;140536;-83
2024/03/10 06:43:45;;;;;;;59.40;29.90;;;;;;;6.39;100.00;99835.34;213819;1294;96642;-84
2024/03/10 06:48:46;;;;;;;55.00;28.50;;;;;;;6.38;100.00;99837.34;213073;1288;140104;-83
2024/03/10 06:53:47;;;;;;;59.20;30.30;;;;;;;6.36;100.00;99836.53;213716;1292;139041;-83
2024/03/10 06:58:51;;;;;;;57.00;29.50;;;;;;;6.36;100.00;99837.79;213103;1292;139325;-84
2024/03/10 07:03:52;;;;;;;54.00;26.60;;;;;;;6.36;100.00;99839.42;213646;1292;138695;-85
2024/03/10 07:08:53;;;;;;;61.70;27.70;;;;;;;6.36;100.00;99831.14;213048;1289;139772;-83
2024/03/10 07:13:54;;;;;;;60.80;29.20;;;;;;;6.36;100.00;99825.37;213572;1289;96824;-84
2024/03/10 07:18:54;;;;;;;80.60;33.70;;;;;;;6.37;100.00;99827.73;213250;1288;139634;-85
2024/03/10 07:23:55;;;;;;;64.70;29.60;;;;;;;6.39;100.00;99823.77;213653;1293;138895;-84
2024/03/10 07:28:55;;;;;;;68.50;33.50;;;;;;;6.40;100.00;99822.55;215215;1289;139816;-84
2024/03/10 07:33:56;;;;;;;61.20;29.10;;;;;;;6.42;100.00;99831.02;213632;1292;138507;-85
2024/03/10 07:38:56;;;;;;;65.50;31.00;;;;;;;6.46;100.00;99836.95;213130;1289;140670;-83
2024/03/10 07:43:57;;;;;;;52.60;27.50;;;;;;;6.50;100.00;99831.48;213948;1289;105690;-85
2024/03/10 07:49:00;;;;;;;59.00;28.50;;;;;;;6.54;100.00;99828.27;213065;1293;139724;-84
2024/03/10 07:54:02;;;;;;;50.70;25.80;;;;;;;6.56;100.00;99825.88;213619;1292;138295;-85
2024/03/10 07:59:03;;;;;;;58.80;27.40;;;;;;;6.58;100.00;99817.48;213155;1292;140110;-85
2024/03/10 08:04:03;;;;;;;58.90;27.90;;;;;;;6.59;100.00;99820.30;213730;1288;138882;-85
2024/03/10 08:09:04;;;;;;;62.10;29.40;;;;;;;6.58;100.00;99818.73;213366;1289;139602;-86
2024/03/10 08:14:05;;;;;;;55.90;28.80;;;;;;;6.60;100.00;99816.27;214295;1288;97222;-85
2024/03/10 08:19:06;;;;;;;64.00;29.70;;;;;;;6.61;100.00;99810.73;213421;1288;140161;-87
2024/03/10 08:24:09;;;;;;;68.80;32.40;;;;;;;6.64;100.00;99817.58;213903;1289;138974;-86
2024/03/10 08:29:11;;;;;;;59.40;27.90;;;;;;;6.69;100.00;99818.21;214169;1289;410969;-85
2024/03/10 08:34:11;;;;;;;53.00;26.60;;;;;;;6.75;100.00;99816.97;213761;1288;138450;-86
2024/03/10 08:39:16;;;;;;;51.60;25.90;;;;;;;6.82;100.00;99812.40;213719;1288;140677;-84
2024/03/10 08:44:17;;;;;;;53.60;27.70;;;;;;;6.87;100.00;99803.27;213733;1288;109319;-84
2024/03/10 08:49:17;;;;;;;50.50;26.60;;;;;;;6.92;100.00;99795.54;213206;1289;139223;-84
2024/03/10 08:54:18;;;;;;;48.20;25.50;;;;;;;7.01;100.00;99796.36;213721;1289;139013;-83
2024/03/10 08:59:18;;;;;;;52.40;26.40;;;;;;;7.09;100.00;99794.45;213164;1289;140162;-83
2024/03/10 09:04:19;;;;;;;52.20;26.60;;;;;;;7.15;100.00;99805.41;213605;1291;138525;-83
2024/03/10 09:09:22;;;;;;;48.60;26.60;;;;;;;7.21;100.00;99805.27;213247;1288;139707;-84
2024/03/10 09:14:24;;;;;;;44.30;23.90;;;;;;;7.28;100.00;99808.55;214200;1292;110436;-85
2024/03/10 09:19:25;;;;;;;52.50;26.30;;;;;;;7.38;100.00;99805.42;213130;1288;139788;-86
2024/03/10 09:24:26;;;;;;;54.30;26.40;;;;;;;7.48;100.00;99802.44;213557;1288;138458;-85
2024/03/10 09:29:26;;;;;;;47.80;23.80;;;;;;;7.62;100.00;99801.66;214018;1291;140180;-85
2024/03/10 09:34:27;;;;;;;48.50;25.40;;;;;;;7.74;100.00;99803.16;213602;1289;139073;-84
2024/03/10 09:39:27;;;;;;;47.80;24.70;;;;;;;7.90;100.00;99800.30;213006;1288;140408;-85
2024/03/10 09:44:30;;;;;;;48.50;25.60;;;;;;;8.06;100.00;99798.99;213741;1288;97528;-84
2024/03/10 09:49:31;;;;;;;233.20;89.80;;;;;;;8.23;99.93;99783.77;213317;1288;139556;-84
2024/03/10 09:54:32;;;;;;;80.10;35.90;;;;;;;8.33;99.97;99777.68;213559;1288;138401;-85
2024/03/10 09:59:43;;;;;;;59.80;28.40;;;;;;;8.42;98.88;99779.26;213084;1288;138824;-84
2024/03/10 10:04:51;;;;;;;57.80;27.90;;;;;;;8.51;98.18;99775.66;213634;1289;138909;-86
2024/03/10 10:09:56;;;;;;;82.20;31.80;;;;;;;8.67;97.33;99770.48;213869;1293;139685;-85
2024/03/10 10:14:56;;;;;;;69.50;32.40;;;;;;;8.90;97.57;99764.75;214504;1289;138342;-84
2024/03/10 10:19:57;;;;;;;63.60;30.90;;;;;;;9.16;96.02;99765.56;214356;1289;139708;-86
2024/03/10 10:25:03;;;;;;;49.00;25.60;;;;;;;9.49;94.21;99756.25;214436;1289;138630;-87
2024/03/10 10:30:09;;;;;;;40.20;22.10;;;;;;;10.03;88.96;99756.38;214723;1288;139675;-84
2024/03/10 10:35:09;;;;;;;53.00;25.80;;;;;;;10.60;88.21;99757.71;214161;1288;139120;-85
2024/03/10 10:40:13;;;;;;;49.00;24.00;;;;;;;11.00;81.69;99756.52;213629;1292;139737;-84
2024/03/10 10:45:16;;;;;;;73.30;28.20;;;;;;;11.18;80.25;99750.26;213727;1288;138672;-84
2024/03/10 10:50:24;;;;;;;49.30;24.60;;;;;;;11.32;80.68;99748.19;213093;1292;140155;-86
2024/03/10 10:55:27;;;;;;;67.00;30.20;;;;;;;11.39;77.59;99742.58;214048;1288;138611;-86
2024/03/10 11:00:28;;;;;;;61.90;28.30;;;;;;;11.36;78.05;99734.55;213405;1292;140347;-85
2024/03/10 11:05:30;;;;;;;70.50;30.70;;;;;;;11.36;77.09;99736.84;213715;1288;138686;-86
2024/03/10 11:10:48;;;;;;;47.70;24.80;;;;;;;11.19;77.84;99731.06;213244;1289;140520;-85
2024/03/10 11:16:14;;;;;;;53.70;28.50;;;;;;;11.13;79.45;99740.83;213437;1289;138635;-85
2024/03/10 11:21:17;;;;;;;60.90;28.80;;;;;;;11.02;80.07;99732.43;213425;1289;139665;-86
2024/03/10 11:26:20;;;;;;;106.30;45.60;;;;;;;10.92;79.87;99730.48;213621;1289;140675;-85
2024/03/10 11:31:25;;;;;;;103.50;40.90;;;;;;;10.79;79.63;99726.49;216293;1288;138860;-85
2024/03/10 11:36:36;;;;;;;77.90;32.70;;;;;;;10.86;80.57;99729.17;213186;1293;139105;-86
2024/03/10 11:41:37;;;;;;;57.40;27.80;;;;;;;10.96;80.16;99719.71;213413;1289;138707;-85
2024/03/10 11:46:38;;;;;;;51.60;27.70;;;;;;;11.00;80.09;99721.35;212923;1288;140021;-86
2024/03/10 11:51:38;;;;;;;52.90;26.80;;;;;;;10.96;79.32;99718.69;213468;1293;139223;-84
2024/03/10 11:56:43;;;;;;;67.00;32.40;;;;;;;10.97;79.55;99705.15;213148;1289;140783;-85
2024/03/10 12:01:44;;;;;;;52.80;28.50;;;;;;;11.01;79.31;99697.59;213522;1292;97933;-85
2024/03/10 12:06:45;;;;;;;46.50;26.30;;;;;;;10.95;79.18;99690.69;212986;1289;140049;-84
2024/03/10 12:11:46;;;;;;;47.10;25.90;;;;;;;10.99;80.91;99688.08;213461;1291;138684;-85
2024/03/10 12:16:50;;;;;;;50.90;26.10;;;;;;;11.10;80.71;99691.43;213016;1289;139444;-87
2024/03/10 12:21:51;;;;;;;45.20;25.20;;;;;;;11.09;79.71;99680.42;213252;1289;138726;-84
2024/03/10 12:26:53;;;;;;;43.90;24.30;;;;;;;11.09;79.86;99669.17;212846;1288;139754;-84
2024/03/10 12:31:53;;;;;;;51.40;27.60;;;;;;;11.11;81.08;99661.54;215157;1288;97377;-86
2024/03/10 12:36:56;;;;;;;46.20;25.80;;;;;;;11.20;80.16;99652.05;212918;1288;139361;-85
2024/03/10 12:41:56;;;;;;;49.90;29.80;;;;;;;11.31;80.32;99652.73;213961;1288;138676;-85
2024/03/10 12:46:56;;;;;;;48.30;26.30;;;;;;;11.50;80.55;99643.51;212981;1293;140208;-84
2024/03/10 12:51:58;;;;;;;42.10;24.20;;;;;;;11.77;79.28;99639.74;213461;1289;138800;-84
2024/03/10 12:57:00;;;;;;;46.10;26.00;;;;;;;11.99;78.89;99631.56;212960;1288;140441;-84
2024/03/10 13:02:00;;;;;;;45.20;24.90;;;;;;;12.16;77.46;99627.17;213490;1289;97971;-85
2024/03/10 13:07:01;;;;;;;44.20;24.70;;;;;;;12.22;76.23;99625.95;212822;1288;141632;-84
2024/03/10 13:12:01;;;;;;;39.80;23.90;;;;;;;12.19;76.05;99614.85;213499;1289;138672;-85
2024/03/10 13:17:03;;;;;;;42.50;23.80;;;;;;;12.21;76.53;99599.85;212995;1289;140470;-85
2024/03/10 13:22:04;;;;;;;78.50;33.30;;;;;;;12.25;77.67;99593.27;213420;1288;138727;-84
2024/03/10 13:27:05;;;;;;;39.70;22.60;;;;;;;12.25;76.67;99590.45;212975;1288;140456;-85
2024/03/10 13:32:06;;;;;;;44.50;22.40;;;;;;;12.24;75.29;99592.42;214801;1288;96706;-87
2024/03/10 13:37:06;;;;;;;46.10;25.10;;;;;;;12.24;73.80;99592.66;212792;1289;140431;-86
2024/03/10 13:42:07;;;;;;;36.40;20.00;;;;;;;12.15;73.23;99588.64;213401;1288;138510;-85
2024/03/10 13:47:07;;;;;;;36.40;19.90;;;;;;;12.14;73.25;99587.38;212820;1293;140045;-86
2024/03/10 13:52:20;;;;;;;37.50;21.20;;;;;;;12.17;73.02;99592.26;213406;1288;138267;-86
2024/03/10 13:57:21;;;;;;;34.80;19.90;;;;;;;12.14;73.15;99590.07;213048;1288;139392;-86
2024/03/10 14:02:21;;;;;;;30.90;17.80;;;;;;;12.04;72.80;99586.13;213633;1288;96675;-85
2024/03/10 14:07:22;;;;;;;31.40;18.00;;;;;;;11.98;73.49;99598.95;213009;1288;138922;-85
2024/03/10 14:12:23;;;;;;;30.80;17.80;;;;;;;11.92;72.82;99598.52;213408;1288;137846;-86
2024/03/10 14:17:24;;;;;;;34.50;18.20;;;;;;;11.84;72.92;99595.98;212829;1288;231084;-85
2024/03/10 14:22:25;;;;;;;35.40;17.10;;;;;;;11.76;72.68;99583.45;213444;1288;138066;-85
2024/03/10 14:27:25;;;;;;;29.40;15.00;;;;;;;11.70;72.95;99581.83;212868;1292;139733;-85
2024/03/10 14:32:26;;;;;;;33.00;18.30;;;;;;;11.63;73.38;99583.29;214667;1292;96783;-86
2024/03/10 14:37:27;;;;;;;34.20;18.10;;;;;;;11.56;73.56;99567.65;213043;1288;140047;-84
2024/03/10 14:42:29;;;;;;;71.90;28.60;;;;;;;11.53;73.80;99558.06;213375;1289;137923;-86
2024/03/10 14:47:29;;;;;;;48.30;21.90;;;;;;;11.50;74.00;99554.54;213034;1292;141233;-85
2024/03/10 14:52:29;;;;;;;47.90;20.60;;;;;;;11.47;75.10;99550.14;213370;1288;138516;-84
2024/03/10 14:57:31;;;;;;;32.80;17.90;;;;;;;11.46;75.20;99550.07;212859;1288;139587;-86
2024/03/10 15:02:31;;;;;;;35.90;20.10;;;;;;;11.44;75.52;99545.69;213521;1291;97935;-84
2024/03/10 15:07:32;;;;;;;31.50;18.10;;;;;;;11.44;76.04;99545.52;213025;1294;139532;-84
2024/03/10 15:12:32;;;;;;;32.70;18.70;;;;;;;11.48;76.27;99548.73;213475;1291;137964;-86
2024/03/10 15:17:33;;;;;;;34.10;18.20;;;;;;;11.49;76.52;99548.08;212985;1289;139851;-85
2024/03/10 15:22:36;;;;;;;31.40;19.10;;;;;;;11.47;76.57;99549.60;213449;1294;137934;-85
2024/03/10 15:27:39;;;;;;;35.30;19.50;;;;;;;11.45;77.16;99550.80;212881;1289;140002;-85
2024/03/10 15:32:42;;;;;;;29.80;17.30;;;;;;;11.42;77.34;99551.52;214430;1292;96734;-85
2024/03/10 15:37:44;;;;;;;27.70;16.40;;;;;;;11.38;77.72;99553.59;212800;1292;138269;-85
2024/03/10 15:42:49;;;;;;;29.80;17.50;;;;;;;11.36;77.79;99548.56;213409;1293;140288;-85
2024/03/10 15:47:56;;;;;;;31.60;16.90;;;;;;;11.33;77.87;99544.42;212618;1294;141001;-86
2024/03/10 15:52:59;;;;;;;28.80;15.50;;;;;;;11.32;78.51;99547.66;213405;1292;137934;-86
2024/03/10 15:58:00;;;;;;;29.90;17.30;;;;;;;11.32;78.58;99542.61;212920;1288;139554;-86
2024/03/10 16:03:24;;;;;;;30.10;16.40;;;;;;;11.30;78.97;99544.44;213433;1289;137968;-85
2024/03/10 16:08:28;;;;;;;29.30;16.80;;;;;;;11.26;78.58;99539.34;212996;1292;139458;-83
2024/03/10 16:13:42;;;;;;;33.40;17.80;;;;;;;11.23;78.85;99544.70;213989;1292;138457;-83
2024/03/10 16:18:44;;;;;;;30.60;16.50;;;;;;;11.20;79.46;99547.64;213303;1289;138999;-85
2024/03/10 16:23:45;;;;;;;30.20;16.30;;;;;;;11.16;79.47;99548.92;213501;1292;137991;-86
2024/03/10 16:28:45;;;;;;;30.30;17.00;;;;;;;11.13;80.09;99551.06;213729;1292;139550;-85
2024/03/10 16:33:46;;;;;;;28.00;16.60;;;;;;;11.09;80.02;99554.71;214413;1288;138200;-85
2024/03/10 16:38:46;;;;;;;29.10;16.80;;;;;;;11.06;80.64;99561.09;213153;1288;139610;-84
2024/03/10 16:43:47;;;;;;;27.20;16.20;;;;;;;11.03;80.71;99557.58;213756;1294;97057;-86
2024/03/10 16:48:48;;;;;;;33.70;19.60;;;;;;;10.99;81.10;99557.02;213212;1289;142155;-85
2024/03/10 16:53:49;;;;;;;30.60;17.00;;;;;;;10.94;81.41;99552.97;213666;1292;138772;-85
2024/03/10 16:58:51;;;;;;;28.80;17.10;;;;;;;10.90;81.23;99556.67;213186;1289;140489;-86
2024/03/10 17:03:52;;;;;;;37.00;18.20;;;;;;;10.88;81.92;99564.47;213546;1289;139045;-86
2024/03/10 17:08:53;;;;;;;30.60;17.30;;;;;;;10.83;82.47;99566.61;213094;1289;140380;-86
2024/03/10 17:13:54;;;;;;;32.90;16.00;;;;;;;10.80;82.61;99565.52;213602;1288;108553;-86
2024/03/10 17:18:55;;;;;;;32.10;17.80;;;;;;;10.76;82.89;99565.63;212984;1289;140215;-86
2024/03/10 17:23:55;;;;;;;29.00;15.70;;;;;;;10.72;83.22;99561.22;213480;1294;139410;-86
2024/03/10 17:28:56;;;;;;;29.60;16.30;;;;;;;10.67;83.66;99561.48;213101;1294;140450;-87
2024/03/10 17:33:57;;;;;;;29.20;17.10;;;;;;;10.64;83.73;99559.68;214763;1289;138910;-86
2024/03/10 17:38:59;;;;;;;28.50;16.60;;;;;;;10.62;84.15;99555.60;213253;1289;140385;-85
2024/03/10 17:43:59;;;;;;;30.40;16.00;;;;;;;10.61;84.33;99551.28;213672;1294;97179;-87
2024/03/10 17:49:00;;;;;;;28.50;15.90;;;;;;;10.61;84.43;99543.26;213146;1293;139658;-88
2024/03/10 17:54:00;;;;;;;29.10;16.10;;;;;;;10.60;84.71;99540.36;213651;1289;139067;-88
2024/03/10 17:59:01;;;;;;;31.80;17.00;;;;;;;10.61;84.74;99535.55;213325;1289;139511;-88
2024/03/10 18:04:02;;;;;;;50.30;26.50;;;;;;;10.62;84.93;99531.61;213716;1292;139005;-87
2024/03/10 18:09:09;;;;;;;49.30;21.60;;;;;;;10.62;85.19;99532.16;213378;1289;139905;-87
2024/03/10 18:14:11;;;;;;;61.10;24.90;;;;;;;10.65;85.27;99523.77;213652;1291;108092;-87
2024/03/10 18:19:13;;;;;;;53.80;23.00;;;;;;;10.69;85.07;99527.91;213561;1288;140923;-86
2024/03/10 18:24:13;;;;;;;44.40;19.90;;;;;;;10.70;85.25;99531.91;213790;1289;138738;-84
2024/03/10 18:29:14;;;;;;;42.40;18.90;;;;;;;10.71;85.35;99535.05;213212;1293;140430;-86
2024/03/10 18:34:14;;;;;;;146.40;53.10;;;;;;;10.71;85.36;99537.81;214775;1288;137770;-87
2024/03/10 18:39:17;;;;;;;54.20;23.20;;;;;;;10.73;85.34;99540.70;213655;1294;141153;-87
2024/03/10 18:44:18;;;;;;;65.70;24.80;;;;;;;10.74;85.54;99539.05;214138;1294;96658;-88
2024/03/10 18:49:18;;;;;;;36.00;17.20;;;;;;;10.74;85.63;99536.69;213604;1289;139602;-86
2024/03/10 18:54:20;;;;;;;72.10;26.60;;;;;;;10.73;85.88;99537.55;214063;1289;138669;-88
2024/03/10 18:59:21;;;;;;;45.70;19.10;;;;;;;10.73;85.65;99534.17;213205;1292;140042;-88
2024/03/10 19:04:22;;;;;;;46.40;19.00;;;;;;;10.71;85.97;99535.52;213619;1288;139275;-87
2024/03/10 19:09:23;;;;;;;46.80;19.30;;;;;;;10.70;86.03;99537.96;213080;1292;141072;-87
2024/03/10 19:14:23;;;;;;;41.90;17.30;;;;;;;10.69;86.18;99534.51;213683;1294;97550;-84
2024/03/10 19:19:25;;;;;;;41.30;16.50;;;;;;;10.69;86.03;99534.66;212932;1289;140431;-87
2024/03/10 19:24:26;;;;;;;65.90;22.80;;;;;;;10.69;86.18;99528.06;213432;1292;138725;-88
2024/03/10 19:29:26;;;;;;;43.80;18.10;;;;;;;10.66;86.51;99528.86;212999;1292;141054;-87
2024/03/10 19:34:27;;;;;;;36.70;17.40;;;;;;;10.65;86.51;99528.71;214528;1292;139509;-87
2024/03/10 19:39:27;;;;;;;41.90;18.40;;;;;;;10.65;86.79;99534.84;213196;1292;140302;-88
2024/03/10 19:44:28;;;;;;;38.10;18.00;;;;;;;10.63;86.90;99527.38;213596;1289;96705;-87
2024/03/10 19:49:28;;;;;;;36.50;18.00;;;;;;;10.61;86.94;99531.15;213054;1294;139858;-87
2024/03/10 19:54:29;;;;;;;39.90;17.40;;;;;;;10.60;87.35;99531.94;213526;1294;138587;-87
2024/03/10 19:59:29;;;;;;;37.40;16.70;;;;;;;10.58;87.72;99534.94;212968;1289;140275;-87
2024/03/10 20:04:32;;;;;;;35.20;15.50;;;;;;;10.55;88.02;99529.52;213554;1288;138818;-84
2024/03/10 20:09:33;;;;;;;38.00;17.60;;;;;;;10.53;88.27;99521.66;213176;1291;140333;-86
2024/03/10 20:14:34;;;;;;;34.60;16.90;;;;;;;10.51;88.55;99520.89;213656;1294;97936;-88
2024/03/10 20:19:34;;;;;;;32.80;15.70;;;;;;;10.51;89.04;99525.14;213195;1289;139420;-87
2024/03/10 20:24:36;;;;;;;109.20;36.40;;;;;;;10.50;89.18;99525.45;213618;1292;138490;-87
2024/03/10 20:29:36;;;;;;;37.20;17.90;;;;;;;10.50;89.46;99534.73;213721;1289;283549;-87
2024/03/10 20:34:37;;;;;;;28.00;14.40;;;;;;;10.53;89.74;99533.23;215304;1288;138809;-87
2024/03/10 20:39:37;;;;;;;31.10;15.90;;;;;;;10.53;90.30;99527.56;213794;1288;141042;-88
2024/03/10 20:44:38;;;;;;;25.60;14.50;;;;;;;10.50;91.91;99531.34;214476;1290;98039;-87
2024/03/10 20:49:39;;;;;;;30.30;16.60;;;;;;;10.45;92.70;99527.75;213896;1288;140812;-87
2024/03/10 20:54:41;;;;;;;42.90;17.80;;;;;;;10.42;92.66;99527.44;214594;1288;138514;-86
2024/03/10 20:59:41;;;;;;;42.30;17.00;;;;;;;10.41;92.93;99524.07;214613;1287;141446;-86
2024/03/10 21:04:42;;;;;;;29.50;15.60;;;;;;;10.41;93.25;99533.42;215134;1283;139104;-86
2024/03/10 21:09:44;;;;;;;25.80;13.60;;;;;;;10.40;93.48;99534.52;214802;1282;140571;-87
2024/03/10 21:14:44;;;;;;;26.10;13.60;;;;;;;10.40;93.71;99524.85;214913;1288;138830;-85
2024/03/10 21:19:45;;;;;;;26.60;15.00;;;;;;;10.41;94.18;99521.95;214177;1285;140458;-89
2024/03/10 21:24:45;;;;;;;25.70;13.10;;;;;;;10.41;94.62;99515.90;214607;1283;138516;-87
2024/03/10 21:29:46;;;;;;;22.40;12.80;;;;;;;10.39;95.10;99516.06;214007;1283;140326;-85
2024/03/10 21:34:48;;;;;;;20.80;12.10;;;;;;;10.38;95.39;99519.45;214989;1283;138662;-86
2024/03/10 21:39:49;;;;;;;27.00;12.60;;;;;;;10.37;95.71;99528.88;213845;1282;140474;-87
2024/03/10 21:44:50;;;;;;;21.90;12.20;;;;;;;10.34;96.79;99533.67;214431;1285;138790;-86
2024/03/10 21:49:51;;;;;;;20.80;10.90;;;;;;;10.26;99.71;99527.33;214010;1288;140210;-86
2024/03/10 21:54:52;;;;;;;23.90;11.30;;;;;;;10.13;100.00;99529.00;214481;1288;138547;-86
2024/03/10 21:59:54;;;;;;;23.00;11.30;;;;;;;10.02;100.00;99512.28;213894;1285;139680;-85
2024/03/10 22:04:55;;;;;;;19.80;10.80;;;;;;;9.93;100.00;99516.90;214508;1283;138903;-86
2024/03/10 22:09:55;;;;;;;25.50;11.20;;;;;;;9.87;100.00;99516.20;213956;1283;139839;-85
2024/03/10 22:14:56;;;;;;;21.40;11.40;;;;;;;9.82;100.00;99522.33;214549;1288;138972;-86
2024/03/10 22:19:56;;;;;;;17.10;8.70;;;;;;;9.77;100.00;99517.78;214063;1282;139666;-84
2024/03/10 22:24:58;;;;;;;23.20;12.10;;;;;;;9.72;100.00;99517.38;214369;1285;139075;-85
2024/03/10 22:29:59;;;;;;;20.80;10.60;;;;;;;9.66;100.00;99501.53;213814;1283;141014;-86
2024/03/10 22:34:59;;;;;;;22.60;11.10;;;;;;;9.59;100.00;99505.38;215223;1288;138981;-84
2024/03/10 22:40:00;;;;;;;24.50;12.20;;;;;;;9.57;100.00;99506.09;213791;1287;139776;-86
2024/03/10 22:45:00;;;;;;;27.80;12.40;;;;;;;9.54;100.00;99483.95;214263;1287;138508;-87
2024/03/10 22:50:01;;;;;;;197.20;66.50;;;;;;;9.53;100.00;99472.10;214043;1285;141684;-86
2024/03/10 22:55:02;;;;;;;57.70;21.10;;;;;;;9.51;100.00;99481.11;214327;1285;138586;-85